Time;durP1;ratioP1;P1;durP2;ratioP2;P2;SDS_P1;SDS_P2;PMS_P1;PMS_P2;Temp;Humidity;BMP_temperature;BMP_pressure;BME280_temperature;BME280_humidity;BME280_pressure;Samples;Min_cycle;Max_cycle;Signal;HPM_P1;HPM_P2
2022/07/04 00:01:28;;;;;;;8.13;2.40;;;;;;;15.59;97.07;101883.13;5074503;28;20519;-59
2022/07/04 00:03:58;;;;;;;6.68;2.30;;;;;;;15.65;96.63;101889.81;5074141;28;20131;-59
2022/07/04 00:06:26;;;;;;;6.30;2.45;;;;;;;15.62;97.89;101888.22;5074012;28;20131;-51
2022/07/04 00:08:56;;;;;;;6.43;1.98;;;;;;;15.62;97.42;101882.91;5073370;28;20381;-53
2022/07/04 00:11:24;;;;;;;8.65;2.30;;;;;;;15.57;97.80;101884.19;5068840;28;20052;-50
2022/07/04 00:13:52;;;;;;;6.85;2.47;;;;;;;15.55;98.11;101882.47;5071567;28;20124;-53
2022/07/04 00:16:20;;;;;;;8.13;2.30;;;;;;;15.46;98.18;101880.50;5073759;28;20044;-59
2022/07/04 00:18:48;;;;;;;4.38;2.03;;;;;;;15.47;98.29;101886.63;5071005;28;20052;-50
2022/07/04 00:21:16;;;;;;;6.50;2.35;;;;;;;15.44;98.68;101878.91;5069457;28;20044;-50
2022/07/04 00:23:44;;;;;;;8.32;2.08;;;;;;;15.30;99.35;101883.34;5073531;28;20476;-57
2022/07/04 00:26:13;;;;;;;8.25;2.53;;;;;;;15.35;99.13;101885.66;5074225;28;20056;-58
2022/07/04 00:28:41;;;;;;;7.38;2.45;;;;;;;15.37;98.75;101881.97;5074187;28;20530;-51
2022/07/04 00:31:09;;;;;;;5.95;2.70;;;;;;;15.38;98.75;101878.38;5072610;28;20442;-49
2022/07/04 00:33:38;;;;;;;5.38;2.30;;;;;;;15.31;98.86;101878.88;5072550;28;20411;-51
2022/07/04 00:36:06;;;;;;;7.13;2.20;;;;;;;15.27;99.33;101872.97;5072061;28;20048;-48
2022/07/04 00:38:34;;;;;;;8.57;2.47;;;;;;;15.20;99.41;101876.97;5073884;28;20076;-59
2022/07/04 00:41:02;;;;;;;5.95;2.30;;;;;;;15.33;99.72;101877.00;5053973;28;20049;-53
2022/07/04 00:43:31;;;;;;;7.32;2.60;;;;;;;15.30;99.14;101886.00;5054003;28;20076;-58
2022/07/04 00:46:19;;;;;;;5.70;2.20;;;;;;;15.12;99.94;101877.53;5053276;28;20287;-49
2022/07/04 00:48:47;;;;;;;7.45;2.42;;;;;;;15.12;100.00;101876.66;5062228;28;20123;-51
2022/07/04 00:51:15;;;;;;;8.95;2.55;;;;;;;15.17;100.00;101875.41;5072531;28;20084;-51
2022/07/04 00:53:44;;;;;;;8.32;2.60;;;;;;;15.13;100.00;101875.72;5073322;28;20044;-58
2022/07/04 00:56:12;;;;;;;9.98;2.60;;;;;;;15.17;100.00;101879.84;5073525;28;20044;-51
2022/07/04 00:58:41;;;;;;;6.25;2.20;;;;;;;15.07;100.00;101876.97;5072366;28;20056;-59
2022/07/04 01:01:09;;;;;;;9.20;2.60;;;;;;;15.00;100.00;101879.19;5072640;28;20588;-58
2022/07/04 01:03:37;;;;;;;8.20;2.58;;;;;;;14.92;100.00;101881.50;5072277;28;20057;-58
2022/07/04 01:06:08;;;;;;;5.43;2.15;;;;;;;14.84;100.00;101876.72;5073597;28;20476;-52
2022/07/04 01:08:37;;;;;;;6.95;2.63;;;;;;;14.79;100.00;101883.28;5072446;28;20040;-53
2022/07/04 01:11:05;;;;;;;5.43;2.58;;;;;;;14.73;100.00;101873.09;5072702;28;20491;-58
2022/07/04 01:13:33;;;;;;;9.00;2.40;;;;;;;14.75;100.00;101876.50;5072999;28;20686;-59
2022/07/04 01:16:03;;;;;;;7.70;2.63;;;;;;;14.78;100.00;101878.91;5073716;28;20101;-59
2022/07/04 01:18:32;;;;;;;4.65;2.30;;;;;;;14.79;100.00;101883.28;5073209;28;20054;-58
2022/07/04 01:21:01;;;;;;;8.32;2.03;;;;;;;14.78;100.00;101881.56;5072526;28;20115;-58
2022/07/04 01:23:30;;;;;;;5.97;2.42;;;;;;;14.69;100.00;101873.28;5072693;28;20044;-52
2022/07/04 01:25:59;;;;;;;7.28;2.35;;;;;;;14.65;100.00;101874.44;5072044;28;20045;-57
2022/07/04 01:28:27;;;;;;;6.28;2.20;;;;;;;14.59;100.00;101873.97;5071929;28;20047;-57
2022/07/04 01:30:55;;;;;;;5.82;2.22;;;;;;;14.64;100.00;101861.31;5070361;28;20056;-59
2022/07/04 01:33:23;;;;;;;5.00;2.47;;;;;;;14.51;100.00;101870.03;5071687;28;20123;-53
2022/07/04 01:35:51;;;;;;;5.72;2.75;;;;;;;14.50;100.00;101864.84;5072558;28;20095;-59
2022/07/04 01:38:21;;;;;;;5.82;2.30;;;;;;;14.44;100.00;101852.88;5070962;28;20055;-53
2022/07/04 01:40:49;;;;;;;7.00;2.50;;;;;;;14.39;100.00;101851.47;5072650;28;20044;-58
2022/07/04 01:43:17;;;;;;;5.60;2.35;;;;;;;14.34;100.00;101849.97;5071407;28;20044;-48
2022/07/04 01:45:45;;;;;;;9.35;2.67;;;;;;;14.32;100.00;101854.50;5072837;28;20040;-58
2022/07/04 01:48:14;;;;;;;6.30;2.70;;;;;;;14.34;100.00;101849.09;5073195;28;20492;-59
2022/07/04 01:50:42;;;;;;;6.72;2.50;;;;;;;14.30;100.00;101850.25;5072394;28;20056;-54
2022/07/04 01:53:10;;;;;;;6.82;2.70;;;;;;;14.35;100.00;101851.66;5068163;28;20068;-51
2022/07/04 01:55:40;;;;;;;8.98;3.08;;;;;;;14.28;100.00;101855.66;5072422;28;20450;-58
2022/07/04 01:58:08;;;;;;;10.10;2.95;;;;;;;14.30;100.00;101844.97;5072455;28;20106;-59
2022/07/04 02:03:21;;;;;;;7.97;3.03;;;;;;;14.25;100.00;101842.63;5071764;28;20052;-48
2022/07/04 02:05:49;;;;;;;7.68;3.00;;;;;;;14.16;100.00;101844.06;5071013;28;20487;-53
2022/07/04 02:08:17;;;;;;;10.35;3.58;;;;;;;14.15;100.00;101850.31;5072170;28;20044;-57
2022/07/04 02:10:47;;;;;;;7.00;2.92;;;;;;;14.16;100.00;101848.50;5072387;28;20078;-57
2022/07/04 02:13:14;;;;;;;6.72;3.30;;;;;;;14.13;100.00;101848.72;5072924;28;20044;-54
2022/07/04 02:15:43;;;;;;;8.48;3.63;;;;;;;14.17;100.00;101844.94;5071796;28;20094;-57
2022/07/04 02:18:11;;;;;;;8.27;3.88;;;;;;;14.03;100.00;101844.00;5072050;28;20063;-52
2022/07/04 02:20:40;;;;;;;6.82;3.50;;;;;;;14.11;100.00;101840.88;5068503;28;20045;-53
2022/07/04 02:23:08;;;;;;;8.23;3.70;;;;;;;13.95;100.00;101840.16;5069707;28;20052;-53
2022/07/04 02:25:36;;;;;;;9.95;3.90;;;;;;;13.92;100.00;101841.22;5072719;28;20094;-59
2022/07/04 02:28:05;;;;;;;10.48;4.35;;;;;;;13.92;100.00;101838.56;5072603;28;20071;-51
2022/07/04 02:30:33;;;;;;;10.65;4.00;;;;;;;13.87;100.00;101832.72;5070390;28;20399;-52
2022/07/04 02:33:01;;;;;;;11.68;5.10;;;;;;;13.82;100.00;101834.78;5069184;28;20040;-54
2022/07/04 02:35:30;;;;;;;9.43;3.97;;;;;;;13.92;100.00;101830.63;5071292;28;20057;-58
2022/07/04 02:37:58;;;;;;;8.00;4.22;;;;;;;13.88;100.00;101834.41;5069596;28;20053;-58
2022/07/04 02:40:26;;;;;;;9.55;4.00;;;;;;;13.89;100.00;101830.81;5071295;28;20071;-51
2022/07/04 02:42:54;;;;;;;8.43;4.22;;;;;;;13.79;100.00;101827.06;5071989;28;20450;-51
2022/07/04 02:45:23;;;;;;;9.65;4.00;;;;;;;13.78;100.00;101841.22;5068148;28;20137;-52
2022/07/04 02:47:51;;;;;;;12.38;4.72;;;;;;;13.74;100.00;101834.44;5069293;28;20518;-56
2022/07/04 02:50:19;;;;;;;9.18;4.47;;;;;;;13.69;100.00;101840.03;5071886;28;20045;-52
2022/07/04 02:52:47;;;;;;;10.75;5.72;;;;;;;13.69;100.00;101835.56;5071557;28;20052;-49
2022/07/04 02:55:15;;;;;;;11.18;5.70;;;;;;;13.69;100.00;101840.84;5074409;28;20048;-53
2022/07/04 02:57:43;;;;;;;9.60;5.13;;;;;;;13.66;100.00;101840.19;5075355;28;20114;-50
2022/07/04 03:00:13;;;;;;;10.05;4.75;;;;;;;13.61;100.00;101843.13;5074334;28;20044;-58
2022/07/04 03:02:42;;;;;;;9.70;4.85;;;;;;;13.59;100.00;101852.94;5075644;28;20514;-58
2022/07/04 03:05:10;;;;;;;8.57;4.70;;;;;;;13.65;100.00;101855.22;5075758;28;20055;-58
2022/07/04 03:07:38;;;;;;;7.82;4.47;;;;;;;13.60;100.00;101846.72;5075290;28;20102;-58
2022/07/04 03:10:08;;;;;;;9.63;4.22;;;;;;;13.53;100.00;101848.03;5076590;28;20049;-59
2022/07/04 03:12:36;;;;;;;7.82;4.03;;;;;;;13.46;100.00;101852.84;5074144;28;20048;-58
2022/07/04 03:15:05;;;;;;;7.80;4.28;;;;;;;13.33;100.00;101854.50;5076092;28;20061;-58
2022/07/04 03:17:33;;;;;;;7.97;4.63;;;;;;;13.47;100.00;101861.63;5075651;28;20090;-59
2022/07/04 03:20:03;;;;;;;8.68;4.40;;;;;;;13.57;100.00;101873.34;5075677;28;20083;-58
2022/07/04 03:22:31;;;;;;;9.77;4.95;;;;;;;13.46;100.00;101867.88;5075573;28;20102;-59
2022/07/04 03:24:59;;;;;;;10.43;4.50;;;;;;;13.42;100.00;101867.19;5075714;28;20539;-58
2022/07/04 03:27:27;;;;;;;8.25;5.03;;;;;;;13.51;100.00;101869.28;5075638;28;20444;-58
2022/07/04 03:29:55;;;;;;;8.57;4.93;;;;;;;13.40;100.00;101874.34;5075174;28;20057;-59
2022/07/04 03:32:23;;;;;;;10.63;4.75;;;;;;;13.40;100.00;101877.00;5075353;28;20044;-59
2022/07/04 03:34:51;;;;;;;11.68;5.47;;;;;;;13.40;100.00;101877.00;5075454;28;20453;-58
2022/07/04 03:37:20;;;;;;;8.23;5.30;;;;;;;13.38;100.00;101878.06;5074957;28;20040;-59
2022/07/04 03:39:48;;;;;;;9.30;5.13;;;;;;;13.36;100.00;101880.75;5074871;28;20128;-59
2022/07/04 03:42:18;;;;;;;8.38;5.00;;;;;;;13.33;100.00;101876.50;5075441;28;20055;-51
2022/07/04 03:44:46;;;;;;;11.05;5.10;;;;;;;13.25;100.00;101883.19;5072729;28;20032;-52
2022/07/04 03:47:14;;;;;;;11.27;5.95;;;;;;;13.23;100.00;101882.44;5074268;28;20103;-52
2022/07/04 03:49:42;;;;;;;10.35;5.18;;;;;;;13.24;100.00;101877.06;5070181;28;20041;-52
2022/07/04 03:52:11;;;;;;;13.93;6.68;;;;;;;13.17;100.00;101881.84;5070917;28;20048;-51
2022/07/04 03:54:40;;;;;;;12.65;5.93;;;;;;;13.18;100.00;101887.97;5073672;28;20113;-53
2022/07/04 03:57:08;;;;;;;11.43;5.43;;;;;;;13.23;100.00;101885.91;5071913;28;20097;-59
2022/07/04 03:59:36;;;;;;;9.93;5.25;;;;;;;13.21;100.00;101898.38;5072140;28;20520;-53
2022/07/04 04:02:05;;;;;;;10.43;5.78;;;;;;;13.23;100.00;101898.28;5071733;28;20106;-58
2022/07/04 04:07:18;;;;;;;8.48;5.53;;;;;;;13.27;100.00;101903.28;5074652;28;20051;-59
2022/07/04 04:09:48;;;;;;;13.38;6.35;;;;;;;13.30;100.00;101908.38;5073562;28;20076;-58
2022/07/04 04:12:16;;;;;;;9.20;5.63;;;;;;;13.29;100.00;101914.63;5074919;28;20045;-58
2022/07/04 04:14:45;;;;;;;9.57;6.28;;;;;;;13.42;100.00;101921.84;5075168;28;20487;-58
2022/07/04 04:17:13;;;;;;;14.25;7.18;;;;;;;13.42;100.00;101916.56;5072675;28;20047;-51
2022/07/04 04:19:42;;;;;;;11.98;7.05;;;;;;;13.41;100.00;101915.69;5071243;28;20058;-52
2022/07/04 04:22:09;;;;;;;13.95;7.57;;;;;;;13.45;100.00;101916.38;5073752;28;20056;-52
2022/07/04 04:24:37;;;;;;;13.88;8.30;;;;;;;13.41;100.00;101913.06;5073573;28;20083;-52
2022/07/04 04:27:07;;;;;;;12.10;7.90;;;;;;;13.45;100.00;101913.72;5074121;28;20381;-59
2022/07/04 04:29:35;;;;;;;13.93;8.20;;;;;;;13.51;100.00;101921.25;5074382;28;20045;-59
2022/07/04 04:32:04;;;;;;;13.77;8.57;;;;;;;13.51;100.00;101921.25;5072894;28;20139;-53
2022/07/04 04:34:33;;;;;;;13.88;8.52;;;;;;;13.57;100.00;101915.63;5070541;28;20067;-52
2022/07/04 04:37:01;;;;;;;12.20;8.43;;;;;;;13.58;100.00;101922.63;5073457;28;20529;-59
2022/07/04 04:39:29;;;;;;;13.13;9.18;;;;;;;13.59;100.00;101919.00;5072669;28;20418;-59
2022/07/04 04:41:57;;;;;;;15.43;9.57;;;;;;;13.63;100.00;101915.25;5074178;28;20049;-58
2022/07/04 04:44:27;;;;;;;14.38;9.63;;;;;;;13.66;100.00;101917.72;5073736;28;20047;-57
2022/07/04 04:46:55;;;;;;;15.25;9.98;;;;;;;13.69;100.00;101921.97;5072344;28;20120;-55
2022/07/04 04:49:23;;;;;;;16.35;10.13;;;;;;;13.72;100.00;101915.66;5071718;28;20116;-53
2022/07/04 04:51:51;;;;;;;16.27;9.38;;;;;;;13.71;100.00;101916.59;5068123;28;20128;-52
2022/07/04 04:54:19;;;;;;;18.38;10.57;;;;;;;13.77;100.00;101910.91;5067796;28;20412;-52
2022/07/04 04:56:47;;;;;;;18.40;9.98;;;;;;;13.81;100.00;101902.69;5072100;28;20045;-52
2022/07/04 04:59:15;;;;;;;12.90;9.25;;;;;;;13.86;100.00;101912.97;5070437;28;20098;-53
2022/07/04 05:01:44;;;;;;;13.48;9.00;;;;;;;13.97;100.00;101901.72;5073197;28;20094;-58
2022/07/04 05:04:14;;;;;;;13.43;9.10;;;;;;;14.05;100.00;101899.44;5073816;28;20495;-59
2022/07/04 05:06:42;;;;;;;16.02;9.20;;;;;;;14.10;100.00;101899.19;5073835;28;20053;-57
2022/07/04 05:09:10;;;;;;;14.88;9.30;;;;;;;14.13;100.00;101904.28;5073697;28;20060;-58
2022/07/04 05:11:38;;;;;;;13.50;9.20;;;;;;;14.10;100.00;101897.38;5072954;28;20545;-58
2022/07/04 05:14:06;;;;;;;12.07;8.60;;;;;;;14.23;100.00;101901.88;5072334;28;20036;-53
2022/07/04 05:16:35;;;;;;;13.35;8.52;;;;;;;14.34;100.00;101899.38;5071268;28;20443;-52
2022/07/04 05:19:04;;;;;;;12.00;8.02;;;;;;;14.33;100.00;101906.50;5070742;28;20084;-49
2022/07/04 05:21:32;;;;;;;12.73;7.82;;;;;;;14.40;100.00;101903.44;5070614;28;20437;-58
2022/07/04 05:24:00;;;;;;;13.30;7.90;;;;;;;14.48;100.00;101899.34;5072014;28;20046;-55
2022/07/04 05:26:34;;;;;;;13.48;7.55;;;;;;;14.65;100.00;101905.38;5072324;28;20060;-59
2022/07/04 05:29:02;;;;;;;15.88;7.88;;;;;;;14.70;100.00;101904.13;5072879;28;20877;-59
2022/07/04 05:31:30;;;;;;;11.55;7.00;;;;;;;14.81;100.00;101907.88;5072732;28;20121;-53
2022/07/04 05:33:59;;;;;;;14.48;7.97;;;;;;;14.90;100.00;101903.75;5069756;28;20072;-52
2022/07/04 05:36:28;;;;;;;13.85;7.70;;;;;;;15.01;100.00;101906.50;5067668;28;20064;-53
2022/07/04 05:38:57;;;;;;;13.05;6.65;;;;;;;15.14;100.00;101914.50;5068759;28;20119;-51
2022/07/04 05:41:25;;;;;;;14.35;7.20;;;;;;;15.28;100.00;101911.75;5069352;28;20053;-53
2022/07/04 05:43:54;;;;;;;13.68;6.25;;;;;;;15.35;100.00;101921.00;5070121;28;20467;-51
2022/07/04 05:46:26;;;;;;;11.02;6.50;;;;;;;15.46;100.00;101922.03;5071443;28;20047;-51
2022/07/04 05:48:55;;;;;;;12.63;6.50;;;;;;;15.57;100.00;101929.25;5071114;28;20066;-53
2022/07/04 05:51:23;;;;;;;12.68;6.43;;;;;;;15.62;100.00;101935.09;5071080;28;20059;-52
2022/07/04 05:53:53;;;;;;;10.85;6.00;;;;;;;15.72;100.00;101933.50;5070071;28;20396;-59
2022/07/04 05:56:23;;;;;;;12.35;6.45;;;;;;;15.76;100.00;101932.34;5067651;28;20422;-51
2022/07/04 05:58:52;;;;;;;9.85;6.10;;;;;;;15.87;100.00;101934.28;5070102;28;20090;-47
2022/07/04 06:01:20;;;;;;;11.55;6.05;;;;;;;15.91;100.00;101943.72;5072430;28;20056;-58
2022/07/04 06:03:49;;;;;;;11.15;5.43;;;;;;;15.93;100.00;101944.44;5071635;28;20048;-59
2022/07/04 06:06:17;;;;;;;11.57;6.03;;;;;;;16.07;100.00;101947.94;5071431;28;20053;-59
2022/07/04 06:08:45;;;;;;;14.38;5.78;;;;;;;16.22;100.00;101933.56;5072847;28;20041;-59
2022/07/04 06:11:17;;;;;;;12.68;6.78;;;;;;;16.34;100.00;101932.66;5070297;28;20055;-53
2022/07/04 06:13:46;;;;;;;11.65;5.97;;;;;;;16.54;100.00;101933.88;5070310;28;20462;-59
2022/07/04 06:16:14;;;;;;;9.95;5.90;;;;;;;16.73;100.00;101930.72;5073009;28;20090;-58
2022/07/04 06:18:42;;;;;;;11.68;5.70;;;;;;;16.90;100.00;101928.63;5072469;28;20102;-48
2022/07/04 06:21:11;;;;;;;9.65;5.03;;;;;;;16.96;100.00;101933.50;5069456;28;20057;-52
2022/07/04 06:23:39;;;;;;;9.40;4.80;;;;;;;17.06;100.00;101934.47;5068838;28;20098;-59
2022/07/04 06:26:07;;;;;;;10.52;4.90;;;;;;;17.12;100.00;101934.97;5071780;28;20105;-53
2022/07/04 06:28:37;;;;;;;11.20;4.85;;;;;;;17.20;98.99;101936.09;5071874;28;20671;-57
2022/07/04 06:31:14;;;;;;;11.73;4.60;;;;;;;17.39;98.19;101937.34;5076262;28;20064;-53
2022/07/04 06:36:28;;;;;;;8.82;4.65;;;;;;;17.35;94.93;101930.56;5073131;28;20499;-51
2022/07/04 06:38:56;;;;;;;10.32;5.00;;;;;;;17.40;95.58;101931.06;5072301;28;20052;-47
2022/07/04 06:41:24;;;;;;;10.27;5.05;;;;;;;17.47;94.64;101942.91;5075253;28;20041;-49
2022/07/04 06:43:54;;;;;;;12.32;4.80;;;;;;;17.56;94.28;101936.03;5073824;28;20408;-49
2022/07/04 06:46:23;;;;;;;9.88;5.00;;;;;;;17.58;92.83;101934.09;5075997;28;20053;-57
2022/07/04 06:48:51;;;;;;;9.98;4.70;;;;;;;17.65;92.81;101931.81;5072058;28;20502;-49
2022/07/04 06:51:19;;;;;;;13.02;4.85;;;;;;;17.79;90.41;101934.22;5071965;28;20044;-51
2022/07/04 06:53:47;;;;;;;8.48;5.10;;;;;;;17.99;91.53;101942.50;5075264;28;20048;-53
2022/07/04 06:56:15;;;;;;;8.63;4.38;;;;;;;18.16;88.26;101934.00;5075048;28;20052;-52
2022/07/04 06:58:43;;;;;;;8.60;4.88;;;;;;;18.15;87.94;101937.63;5075428;28;20048;-58
2022/07/04 07:01:15;;;;;;;11.20;4.78;;;;;;;18.35;88.37;101935.19;5072919;28;20049;-50
2022/07/04 07:03:43;;;;;;;13.10;5.00;;;;;;;18.44;87.95;101937.09;5072714;28;20049;-58
2022/07/04 07:06:11;;;;;;;10.75;4.65;;;;;;;18.49;87.14;101916.25;5075365;28;20068;-47
2022/07/04 07:08:39;;;;;;;11.13;4.55;;;;;;;18.64;87.48;101911.50;5075933;28;20102;-58
2022/07/04 07:11:13;;;;;;;10.13;4.43;;;;;;;18.88;87.77;101910.44;5075658;28;20048;-58
2022/07/04 07:13:42;;;;;;;10.65;4.85;;;;;;;19.17;87.00;101917.78;5075229;28;20059;-57
2022/07/04 07:16:11;;;;;;;10.93;5.22;;;;;;;19.43;85.53;101916.41;5075219;28;20041;-52
2022/07/04 07:18:40;;;;;;;10.70;4.47;;;;;;;19.45;83.36;101918.13;5074431;28;20692;-50
2022/07/04 07:21:09;;;;;;;10.63;4.28;;;;;;;19.64;82.95;101926.22;5075054;28;20515;-50
2022/07/04 07:23:40;;;;;;;9.27;4.32;;;;;;;19.56;81.54;101928.69;5072153;28;20058;-52
2022/07/04 07:26:08;;;;;;;10.98;4.95;;;;;;;19.63;82.07;101931.69;5070501;28;20056;-57
2022/07/04 07:28:37;;;;;;;10.68;4.18;;;;;;;19.74;81.42;101921.78;5074616;28;20162;-57
2022/07/04 07:31:05;;;;;;;8.45;4.15;;;;;;;19.76;81.18;101918.97;5075097;28;20037;-51
2022/07/04 07:33:33;;;;;;;9.38;4.85;;;;;;;19.67;81.71;101925.94;5089985;28;20075;-57
2022/07/04 07:36:02;;;;;;;10.75;4.40;;;;;;;19.79;82.33;101921.34;5073915;28;20049;-58
2022/07/04 07:38:30;;;;;;;9.95;4.18;;;;;;;19.99;80.90;101927.66;5071652;28;20048;-58
2022/07/04 07:40:58;;;;;;;11.35;4.85;;;;;;;20.05;82.38;101927.09;5072470;28;20051;-58
2022/07/04 07:43:26;;;;;;;8.85;4.85;;;;;;;20.07;81.17;101925.16;5074352;28;20119;-58
2022/07/04 07:45:54;;;;;;;9.77;4.53;;;;;;;20.08;79.54;101916.16;5075145;28;20047;-58
2022/07/04 07:48:22;;;;;;;15.82;5.28;;;;;;;20.09;81.89;101915.16;5074483;28;20059;-50
2022/07/04 07:50:50;;;;;;;14.55;5.50;;;;;;;20.30;80.94;101910.72;5070258;28;20064;-51
2022/07/04 07:53:20;;;;;;;11.38;4.78;;;;;;;20.54;80.41;101908.47;5072345;28;20048;-50
2022/07/04 07:55:48;;;;;;;11.88;5.68;;;;;;;20.76;79.12;101898.53;5074187;28;20056;-50
2022/07/04 07:58:16;;;;;;;12.75;5.32;;;;;;;20.75;79.53;101900.38;5060766;28;20449;-51
2022/07/04 08:00:44;;;;;;;13.32;5.07;;;;;;;21.05;77.92;101903.88;5052598;28;20492;-57
2022/07/04 08:06:08;;;;;;;12.60;5.72;;;;;;;21.11;78.83;101900.59;5073125;28;20712;-58
2022/07/04 08:08:38;;;;;;;10.90;4.70;;;;;;;21.27;79.86;101896.50;5074343;28;20048;-47
2022/07/04 08:11:06;;;;;;;10.93;4.18;;;;;;;21.49;78.98;101903.31;5073930;28;20056;-51
2022/07/04 08:13:34;;;;;;;12.55;4.93;;;;;;;21.73;78.28;101910.88;5074262;28;20052;-58
2022/07/04 08:16:02;;;;;;;8.93;4.47;;;;;;;22.03;76.45;101914.25;5074053;28;20128;-59
2022/07/04 08:18:30;;;;;;;12.18;4.68;;;;;;;22.33;75.29;101916.72;5074245;28;20056;-58
2022/07/04 08:20:58;;;;;;;10.57;4.43;;;;;;;22.37;73.93;101916.28;5072985;28;20049;-53
2022/07/04 08:23:31;;;;;;;9.88;4.13;;;;;;;22.59;73.51;101919.53;5071198;28;20468;-57
2022/07/04 08:26:01;;;;;;;11.90;4.60;;;;;;;22.70;72.63;101924.66;5073257;28;20143;-58
2022/07/04 08:28:30;;;;;;;11.32;4.30;;;;;;;22.83;71.09;101920.75;5073914;28;20045;-58
2022/07/04 08:30:59;;;;;;;9.18;4.15;;;;;;;22.54;71.68;101924.53;5073759;28;20033;-52
2022/07/04 08:33:27;;;;;;;10.48;4.50;;;;;;;22.93;72.36;101916.13;5073227;28;20110;-51
2022/07/04 08:36:03;;;;;;;9.55;4.07;;;;;;;22.95;71.24;101917.66;5071225;28;20444;-57
2022/07/04 08:38:31;;;;;;;13.63;5.45;;;;;;;22.82;69.21;101921.75;5073061;28;20076;-49
2022/07/04 08:41:04;;;;;;;8.77;3.78;;;;;;;23.17;70.11;101920.03;5073832;28;20094;-57
2022/07/04 08:43:35;;;;;;;12.50;4.15;;;;;;;23.36;69.07;101924.34;5073411;28;20048;-58
2022/07/04 08:46:05;;;;;;;8.55;3.47;;;;;;;23.37;67.16;101926.88;5073324;28;20045;-50
2022/07/04 08:48:53;;;;;;;8.68;3.50;;;;;;;23.61;66.78;101930.69;5073415;28;20049;-58
2022/07/04 08:51:31;;;;;;;8.52;3.80;;;;;;;23.74;66.31;101931.09;5072001;28;20060;-52
2022/07/04 08:58:25;;;;;;;9.93;4.00;;;;;;;23.82;65.14;101942.88;5069675;28;20036;-57
2022/07/04 08:59:37;;;;;;;11.23;4.60;;;;;;;23.00;67.25;101927.06;5070889;28;20110;-51
2022/07/04 09:02:05;;;;;;;11.00;3.47;;;;;;;23.16;69.31;101929.06;5068097;28;20040;-59
2022/07/04 09:04:34;;;;;;;11.00;4.22;;;;;;;23.34;69.31;101932.56;5072673;28;20051;-50
2022/07/04 09:07:02;;;;;;;13.18;3.95;;;;;;;23.60;68.47;101929.00;5069248;28;20056;-50
2022/07/04 09:09:33;;;;;;;7.90;3.63;;;;;;;23.80;65.02;101925.09;5071791;28;20078;-58
2022/07/04 09:12:03;;;;;;;9.23;3.42;;;;;;;24.13;65.62;101924.38;5073195;28;20048;-57
2022/07/04 09:14:31;;;;;;;8.85;3.20;;;;;;;24.25;63.38;101931.13;5072590;28;20040;-57
2022/07/04 09:17:00;;;;;;;8.50;3.40;;;;;;;24.37;63.39;101922.78;5072779;28;20123;-56
2022/07/04 09:19:29;;;;;;;10.48;3.22;;;;;;;24.55;62.52;101922.63;5071607;28;20442;-56
2022/07/04 09:21:57;;;;;;;10.25;3.22;;;;;;;24.67;63.58;101924.00;5071769;28;20036;-57
2022/07/04 09:24:46;;;;;;;11.20;3.63;;;;;;;24.54;62.05;101926.31;5069750;28;20129;-50
2022/07/04 09:27:30;;;;;;;8.07;2.88;;;;;;;24.71;62.26;101924.53;5070703;28;20044;-56
2022/07/04 09:29:58;;;;;;;9.02;3.25;;;;;;;24.94;61.77;101917.44;5069309;28;20059;-51
2022/07/04 09:32:38;;;;;;;12.18;3.42;;;;;;;24.92;62.43;101924.00;5071173;28;20067;-51
2022/07/04 09:35:08;;;;;;;10.52;3.15;;;;;;;25.27;60.75;101924.63;5070958;28;20049;-57
2022/07/04 09:37:38;;;;;;;8.30;2.50;;;;;;;25.68;60.74;101918.34;5069130;28;20797;-51
2022/07/04 09:40:08;;;;;;;9.43;2.83;;;;;;;25.86;58.62;101926.16;5071588;28;20036;-52
2022/07/04 09:42:40;;;;;;;9.10;3.28;;;;;;;25.56;56.68;101928.63;5072195;28;20495;-52
2022/07/04 09:45:10;;;;;;;9.85;3.00;;;;;;;25.55;57.20;101921.56;5070076;28;20070;-56
2022/07/04 09:47:40;;;;;;;8.52;2.97;;;;;;;25.28;57.35;101918.25;5069065;28;20052;-51
2022/07/04 09:50:10;;;;;;;9.10;2.55;;;;;;;25.35;57.15;101913.88;5070032;28;20055;-57
2022/07/04 09:52:49;;;;;;;6.60;2.92;;;;;;;24.93;58.53;101917.63;5070993;28;20453;-55
2022/07/04 09:55:23;;;;;;;7.95;2.60;;;;;;;25.04;58.03;101913.75;5065027;28;20167;-51
2022/07/04 09:57:54;;;;;;;10.70;2.95;;;;;;;25.12;57.17;101917.25;5069107;28;20423;-55
2022/07/04 10:00:25;;;;;;;7.10;2.70;;;;;;;25.29;57.56;101914.53;5070337;28;20041;-50
2022/07/04 10:02:54;;;;;;;7.47;2.15;;;;;;;25.26;56.67;101913.00;5071511;28;20101;-53
2022/07/04 10:05:25;;;;;;;9.23;2.80;;;;;;;25.37;56.39;101913.72;5078637;28;20051;-51
2022/07/04 10:07:56;;;;;;;6.07;2.03;;;;;;;25.73;54.95;101903.31;5077810;28;20042;-55
2022/07/04 10:10:29;;;;;;;8.98;2.38;;;;;;;26.15;56.72;101902.13;5078322;28;20497;-53
2022/07/04 10:13:01;;;;;;;6.90;2.30;;;;;;;26.25;55.49;101922.63;5077306;28;20522;-52
2022/07/04 10:15:29;;;;;;;9.15;2.38;;;;;;;26.30;52.92;101909.44;5076124;28;20044;-55
2022/07/04 10:17:58;;;;;;;7.55;2.30;;;;;;;25.93;52.96;101897.50;5076643;28;20041;-55
2022/07/04 10:20:26;;;;;;;8.45;2.28;;;;;;;25.95;53.21;101890.91;5071529;28;20479;-56
2022/07/04 10:22:55;;;;;;;6.25;2.08;;;;;;;25.97;53.99;101893.44;5075590;28;20097;-56
2022/07/04 10:25:23;;;;;;;5.80;1.92;;;;;;;25.90;54.41;101889.78;5077184;28;20040;-55
2022/07/04 10:27:54;;;;;;;7.88;2.25;;;;;;;25.75;53.67;101898.59;5075002;28;20048;-56
2022/07/04 10:30:26;;;;;;;9.23;2.25;;;;;;;25.93;52.84;101901.03;5078251;28;20055;-55
2022/07/04 10:32:55;;;;;;;7.53;2.50;;;;;;;26.03;51.65;101898.16;5073375;28;20056;-52
2022/07/04 10:35:50;;;;;;;6.18;1.70;;;;;;;25.91;50.12;101900.38;5075217;28;20525;-55
2022/07/04 10:38:19;;;;;;;7.88;2.05;;;;;;;25.69;50.95;101896.59;5077419;28;20078;-51
2022/07/04 10:40:51;;;;;;;7.97;1.83;;;;;;;25.61;51.77;101894.78;5077205;28;20096;-49
2022/07/04 10:44:00;;;;;;;5.55;1.90;;;;;;;25.76;52.85;101896.75;5072103;28;20044;-55
2022/07/04 10:46:34;;;;;;;7.18;2.00;;;;;;;25.83;53.13;101891.50;5077813;28;20041;-55
2022/07/04 10:49:03;;;;;;;6.40;2.08;;;;;;;25.71;52.16;101889.19;5076594;28;20123;-49
2022/07/04 10:51:43;;;;;;;5.90;2.00;;;;;;;25.60;52.71;101884.19;5073398;28;20059;-49
2022/07/04 10:54:13;;;;;;;5.50;2.00;;;;;;;25.43;53.05;101894.19;5076207;28;20044;-55
2022/07/04 10:57:00;;;;;;;8.48;2.15;;;;;;;25.26;53.69;101898.72;5077578;28;20052;-56
2022/07/04 10:59:30;;;;;;;4.72;1.73;;;;;;;25.14;54.51;101892.84;5074195;28;20060;-48
2022/07/04 11:02:24;;;;;;;5.43;1.85;;;;;;;25.10;52.34;101896.91;5074053;28;20360;-49
2022/07/04 11:05:00;;;;;;;6.55;1.83;;;;;;;25.19;53.33;101895.06;5074916;28;20048;-55
2022/07/04 11:08:02;;;;;;;9.02;2.03;;;;;;;25.36;52.48;101896.72;5077155;28;20480;-48
2022/07/04 11:10:33;;;;;;;5.35;1.50;;;;;;;25.79;52.36;101889.13;5073240;28;20056;-50
2022/07/04 11:13:18;;;;;;;5.20;1.80;;;;;;;26.20;49.74;101882.72;5078097;28;20047;-57
2022/07/04 11:16:03;;;;;;;7.75;2.25;;;;;;;26.47;50.02;101875.13;5072060;28;20068;-50
2022/07/04 11:18:41;;;;;;;5.85;1.77;;;;;;;26.89;47.52;101876.47;5074195;28;20052;-51
2022/07/04 11:21:17;;;;;;;4.68;1.70;;;;;;;27.15;47.12;101873.31;5072059;28;20053;-52
2022/07/04 11:23:53;;;;;;;5.88;1.60;;;;;;;27.62;46.02;101863.19;5074012;28;20131;-52
2022/07/04 11:26:22;;;;;;;5.07;1.63;;;;;;;27.52;44.06;101869.91;5075161;28;20056;-55
2022/07/04 11:28:51;;;;;;;5.25;1.73;;;;;;;26.71;44.40;101873.25;5072824;28;20075;-53
2022/07/04 11:31:19;;;;;;;4.57;1.50;;;;;;;27.28;46.78;101870.00;5073861;28;20446;-57
2022/07/04 11:33:55;;;;;;;4.63;1.35;;;;;;;27.67;44.12;101859.91;5075015;28;20511;-56
2022/07/04 11:36:23;;;;;;;4.30;1.63;;;;;;;26.77;43.80;101856.34;5075101;28;20126;-49
2022/07/04 11:38:57;;;;;;;5.80;1.65;;;;;;;26.99;43.66;101860.81;5071659;28;20063;-50
2022/07/04 11:47:15;;;;;;;6.03;1.75;;;;;;;28.50;42.30;101851.44;5071183;28;20052;-55
2022/07/04 11:49:48;;;;;;;4.68;1.45;;;;;;;29.11;42.76;101852.72;5074643;28;20483;-56